PWSweather.com
Personal Weather Stations
Station Observations
SEVANL01
SevillaES 41004

SevillaES 41004

Lat: 37.383633, Lon: -5.985787

Elevation: 19.685

Station Type: Davis Vantage Pro2

Latest ConditionsUpdated 10:00:01 AM GMT+01:01 Monday, Nov 24, 2014
Currently Today's Max Today's Min Today's Average
Temperature 61.3°F16.3°C 62.1°F16.7°C 60.8°F16.0°C 61.4°F16.3°C
Dew Point 57.4°F14.1°C 59.1°F15.1°C 57.3°F14.1°C 58.1°F14.5°C
Winds Calm Calm 8.0 mph ENE12.9 kmh ENE - 2.1 mph 3.4 kmh
Wind Gusts 1.0 mph1.6 kmh 23.0 mph37.0 kmh - -
Humidity 87% 93% 85% 89%
Pressure 29.96 in1014.6 mb 29.96 in1014.6 mb 29.82 in1009.8 mb -
Precipitation - 0.14 in3.6 mm - -
Hour Temp Dew Point Humidity Winds Wind Gusts Pressure Precip Precip Rate Daily Precip Total
10:00 AM 61.3°F16.3°C 57.4°F14.1°C 87% Calm Calm 1.0 mph1.6 kmh 29.96 in1014.6 mb 0.00 in0.0 mm 0.00 in/hr0.0 mm/hr 0.14 in3.6 mm
09:40 AM 61.2°F16.2°C 57.6°F14.2°C 88% Calm Calm 5.0 mph8.0 kmh 29.96 in1014.6 mb 0.00 in0.0 mm 0.00 in/hr0.0 mm/hr 0.14 in3.6 mm
09:20 AM 61.0°F16.1°C 57.4°F14.1°C 88% 1.0 mph NE1.6 kmh NE 4.0 mph6.4 kmh 29.95 in1014.2 mb 0.00 in0.0 mm 0.00 in/hr0.0 mm/hr 0.14 in3.6 mm
09:00 AM 61.2°F16.2°C 57.6°F14.2°C 88% 1.0 mph NE1.6 kmh NE 5.0 mph8.0 kmh 29.94 in1013.9 mb 0.00 in0.0 mm 0.00 in/hr0.0 mm/hr 0.14 in3.6 mm
08:40 AM 61.0°F16.1°C 57.7°F14.3°C 89% Calm Calm 5.0 mph8.0 kmh 29.93 in1013.5 mb 0.00 in0.0 mm 0.00 in/hr0.0 mm/hr 0.14 in3.6 mm
08:20 AM 60.8°F16.0°C 57.5°F14.2°C 89% 1.0 mph NE1.6 kmh NE 4.0 mph6.4 kmh 29.92 in1013.2 mb 0.00 in0.0 mm 0.00 in/hr0.0 mm/hr 0.14 in3.6 mm
08:00 AM 60.8°F16.0°C 57.5°F14.2°C 89% 2.0 mph NE3.2 kmh NE 7.0 mph11.3 kmh 29.91 in1012.9 mb 0.00 in0.0 mm 0.00 in/hr0.0 mm/hr 0.14 in3.6 mm
07:40 AM 61.0°F16.1°C 57.7°F14.3°C 89% 2.0 mph NE3.2 kmh NE 6.0 mph9.7 kmh 29.91 in1012.9 mb 0.00 in0.0 mm 0.00 in/hr0.0 mm/hr 0.14 in3.6 mm
07:20 AM 61.0°F16.1°C 57.7°F14.3°C 89% 2.0 mph NNE3.2 kmh NNE 7.0 mph11.3 kmh 29.91 in1012.9 mb 0.00 in0.0 mm 0.00 in/hr0.0 mm/hr 0.14 in3.6 mm
07:00 AM 61.2°F16.2°C 57.6°F14.2°C 88% 2.0 mph NNE3.2 kmh NNE 4.0 mph6.4 kmh 29.90 in1012.5 mb 0.00 in0.0 mm 0.00 in/hr0.0 mm/hr 0.14 in3.6 mm
06:40 AM 61.5°F16.4°C 57.6°F14.2°C 87% Calm Calm 4.0 mph6.4 kmh 29.90 in1012.5 mb 0.00 in0.0 mm 0.00 in/hr0.0 mm/hr 0.14 in3.6 mm
06:20 AM 62.1°F16.7°C 57.5°F14.2°C 85% Calm Calm -- 29.89 in1012.2 mb 0.00 in0.0 mm 0.00 in/hr0.0 mm/hr 0.14 in3.6 mm
06:00 AM 61.9°F16.6°C 57.3°F14.1°C 85% 1.0 mph E1.6 kmh E 3.0 mph4.8 kmh 29.88 in1011.9 mb 0.00 in0.0 mm 0.00 in/hr0.0 mm/hr 0.14 in3.6 mm
05:40 AM 61.9°F16.6°C 57.3°F14.1°C 85% 1.0 mph ENE1.6 kmh ENE 8.0 mph12.9 kmh 29.88 in1011.9 mb 0.00 in0.0 mm 0.00 in/hr0.0 mm/hr 0.14 in3.6 mm
05:20 AM 61.9°F16.6°C 57.3°F14.1°C 85% 2.0 mph E3.2 kmh E 8.0 mph12.9 kmh 29.87 in1011.5 mb 0.00 in0.0 mm 0.00 in/hr0.0 mm/hr 0.14 in3.6 mm
05:00 AM 61.9°F16.6°C 57.6°F14.2°C 86% 5.0 mph ENE8.0 kmh ENE 10.0 mph16.1 kmh 29.85 in1010.8 mb 0.00 in0.0 mm 0.00 in/hr0.0 mm/hr 0.14 in3.6 mm
04:40 AM 61.7°F16.5°C 57.8°F14.3°C 87% 4.0 mph ENE6.4 kmh ENE 11.0 mph17.7 kmh 29.84 in1010.5 mb 0.00 in0.0 mm 0.00 in/hr0.0 mm/hr 0.14 in3.6 mm
04:20 AM 61.9°F16.6°C 58.0°F14.4°C 87% 5.0 mph ENE8.0 kmh ENE 10.0 mph16.1 kmh 29.84 in1010.5 mb 0.00 in0.0 mm 0.00 in/hr0.0 mm/hr 0.14 in3.6 mm
04:00 AM 61.9°F16.6°C 58.0°F14.4°C 87% 4.0 mph ENE6.4 kmh ENE 14.0 mph22.5 kmh 29.83 in1010.2 mb 0.00 in0.0 mm 0.00 in/hr0.0 mm/hr 0.14 in3.6 mm
03:40 AM 61.9°F16.6°C 58.6°F14.8°C 89% 5.0 mph ENE8.0 kmh ENE 14.0 mph22.5 kmh 29.82 in1009.8 mb 0.01 in0.3 mm 0.00 in/hr0.0 mm/hr 0.14 in3.6 mm
03:20 AM 61.3°F16.3°C 58.4°F14.7°C 90% 8.0 mph ENE12.9 kmh ENE 23.0 mph37.0 kmh 29.82 in1009.8 mb 0.02 in0.5 mm 0.00 in/hr0.0 mm/hr 0.14 in3.6 mm
03:00 AM 60.8°F16.0°C 58.5°F14.7°C 92% 7.0 mph ENE11.3 kmh ENE 15.0 mph24.1 kmh 29.83 in1010.2 mb 0.06 in1.5 mm 0.00 in/hr0.0 mm/hr 0.14 in3.6 mm
02:40 AM 61.0°F16.1°C 58.9°F14.9°C 93% 4.0 mph ENE6.4 kmh ENE 11.0 mph17.7 kmh 29.85 in1010.8 mb 0.09 in2.3 mm 0.00 in/hr0.0 mm/hr 0.13 in3.3 mm
02:20 AM 61.0°F16.1°C 58.9°F14.9°C 93% 2.0 mph ENE3.2 kmh ENE 8.0 mph12.9 kmh 29.86 in1011.2 mb 0.10 in2.5 mm 0.03 in/hr0.8 mm/hr 0.11 in2.8 mm
02:00 AM 61.3°F16.3°C 59.0°F15.0°C 92% 1.0 mph NE1.6 kmh NE 4.0 mph6.4 kmh 29.86 in1011.2 mb 0.09 in2.3 mm 0.08 in/hr2.0 mm/hr 0.09 in2.3 mm
01:40 AM 61.3°F16.3°C 59.0°F15.0°C 92% 1.0 mph NE1.6 kmh NE 4.0 mph6.4 kmh 29.86 in1011.2 mb 0.04 in1.0 mm 0.09 in/hr2.3 mm/hr 0.04 in1.0 mm
01:20 AM 61.5°F16.4°C 58.9°F14.9°C 91% 1.0 mph NNE1.6 kmh NNE 5.0 mph8.0 kmh 29.84 in1010.5 mb 0.01 in0.3 mm 0.03 in/hr0.8 mm/hr 0.01 in0.3 mm
01:00 AM 61.7°F16.5°C 59.0°F15.0°C 91% Calm Calm -- 29.84 in1010.5 mb 0.00 in0.0 mm 0.00 in/hr0.0 mm/hr 0.01 in0.3 mm
12:40 AM 61.7°F16.5°C 59.0°F15.0°C 91% 1.0 mph NE1.6 kmh NE 5.0 mph8.0 kmh 29.83 in1010.2 mb 0.01 in0.3 mm 0.00 in/hr0.0 mm/hr 0.01 in0.3 mm
12:20 AM 61.9°F16.6°C 58.9°F14.9°C 90% 1.0 mph NE1.6 kmh NE 6.0 mph9.7 kmh 29.83 in1010.2 mb 0.01 in0.3 mm 0.00 in/hr0.0 mm/hr 0.01 in0.3 mm
12:00 AM 62.1°F16.7°C 59.1°F15.1°C 90% 2.0 mph NE3.2 kmh NE 7.0 mph11.3 kmh 29.83 in1010.2 mb 0.01 in0.3 mm 0.00 in/hr0.0 mm/hr 0.01 in0.3 mm